Time;durP1;ratioP1;P1;durP2;ratioP2;P2;SDS_P1;SDS_P2;PMS_P1;PMS_P2;Temp;Humidity;BMP_temperature;BMP_pressure;BME280_temperature;BME280_humidity;BME280_pressure;Samples;Min_cycle;Max_cycle;Signal;HPM_P1;HPM_P2
2021/10/07 00:00:43;;;;;;;1.85;0.80;;;21.80;61.20;;;;;;5179386;28;20603;-81
2021/10/07 00:03:19;;;;;;;1.65;1.17;;;21.80;61.30;;;;;;5184539;28;20478;-81
2021/10/07 00:05:52;;;;;;;1.10;1.00;;;21.90;61.20;;;;;;5186701;28;20053;-81
2021/10/07 00:08:25;;;;;;;4.78;0.98;;;21.90;61.20;;;;;;5185915;28;20045;-81
2021/10/07 00:10:57;;;;;;;1.92;1.10;;;21.80;61.00;;;;;;5180082;28;20046;-82
2021/10/07 00:13:29;;;;;;;1.50;0.93;;;21.80;61.00;;;;;;5186588;28;20403;-82
2021/10/07 00:16:02;;;;;;;2.05;1.10;;;21.80;61.00;;;;;;5191456;28;20052;-81
2021/10/07 00:18:40;;;;;;;2.20;1.13;;;21.80;61.10;;;;;;5184072;28;20072;-81
2021/10/07 00:21:16;;;;;;;1.08;0.80;;;21.80;61.00;;;;;;5188048;28;20322;-81
2021/10/07 00:26:48;;;;;;;1.20;0.80;;;21.80;61.10;;;;;;5187772;28;20621;-81
2021/10/07 00:29:42;;;;;;;3.80;1.00;;;21.80;61.00;;;;;;5186129;28;21239;-81
2021/10/07 00:32:21;;;;;;;4.35;1.35;;;21.80;61.10;;;;;;5181928;28;20631;-81
2021/10/07 00:40:11;;;;;;;1.35;0.70;;;21.80;61.00;;;;;;5185401;28;20064;-80
2021/10/07 00:42:43;;;;;;;1.23;0.80;;;21.80;61.00;;;;;;5186474;28;20061;-81
2021/10/07 00:45:20;;;;;;;1.75;0.73;;;21.80;61.60;;;;;;5185347;28;20592;-81
2021/10/07 00:47:52;;;;;;;2.13;1.17;;;21.80;61.60;;;;;;5187005;28;20049;-80
2021/10/07 00:50:25;;;;;;;1.48;1.00;;;21.80;60.90;;;;;;5186857;28;20366;-81
2021/10/07 00:52:57;;;;;;;2.88;1.10;;;21.80;60.90;;;;;;5185753;28;20033;-81
2021/10/07 00:55:30;;;;;;;1.55;0.73;;;21.80;60.90;;;;;;5184398;28;20049;-81
2021/10/07 00:58:03;;;;;;;1.80;0.80;;;21.70;60.80;;;;;;5186833;28;20376;-83
2021/10/07 01:00:35;;;;;;;2.40;0.93;;;21.80;60.80;;;;;;5184039;28;20043;-81
2021/10/07 01:03:08;;;;;;;1.50;0.87;;;21.70;60.80;;;;;;5186740;28;20071;-80
2021/10/07 01:05:41;;;;;;;1.75;0.80;;;21.70;60.80;;;;;;5185670;28;20045;-80
2021/10/07 01:08:13;;;;;;;3.20;0.97;;;21.70;60.70;;;;;;5189748;28;20050;-80
2021/10/07 01:10:46;;;;;;;2.00;0.90;;;21.70;60.70;;;;;;5187513;28;20049;-81
2021/10/07 01:13:18;;;;;;;5.23;1.57;;;21.70;60.70;;;;;;5185061;28;20049;-81
2021/10/07 01:15:51;;;;;;;1.33;0.73;;;21.70;60.70;;;;;;5184356;28;20049;-80
2021/10/07 01:18:23;;;;;;;1.33;1.00;;;21.70;60.80;;;;;;5161456;28;20143;-81
2021/10/07 01:20:56;;;;;;;2.85;1.10;;;21.70;60.80;;;;;;5186904;28;20495;-81
2021/10/07 01:23:28;;;;;;;1.52;0.60;;;21.70;60.80;;;;;;5184100;28;20053;-80
2021/10/07 01:26:01;;;;;;;2.30;0.98;;;21.70;60.70;;;;;;5186244;28;20406;-81
2021/10/07 01:28:36;;;;;;;2.20;0.90;;;21.70;60.70;;;;;;5189704;28;20067;-80
2021/10/07 01:31:09;;;;;;;2.65;0.90;;;21.70;60.70;;;;;;5186032;28;20049;-80
2021/10/07 01:33:42;;;;;;;2.55;1.13;;;21.70;60.60;;;;;;5188900;28;20058;-81
2021/10/07 01:36:14;;;;;;;1.88;0.80;;;21.70;60.60;;;;;;5185518;28;20395;-83
2021/10/07 01:38:47;;;;;;;2.27;1.03;;;21.70;60.60;;;;;;5202416;28;20042;-80
2021/10/07 01:41:20;;;;;;;3.00;1.02;;;21.70;60.70;;;;;;5188453;28;20541;-81
2021/10/07 01:43:55;;;;;;;3.20;0.90;;;21.70;60.80;;;;;;5175673;28;20060;-81
2021/10/07 01:46:27;;;;;;;1.05;0.90;;;21.70;60.70;;;;;;5189897;28;20049;-81
2021/10/07 01:49:00;;;;;;;1.85;1.00;;;21.70;60.80;;;;;;5190345;28;20046;-81
2021/10/07 01:51:37;;;;;;;3.50;1.10;;;21.70;60.80;;;;;;5187210;28;20041;-81
2021/10/07 01:54:09;;;;;;;2.00;1.00;;;21.70;60.70;;;;;;5187379;28;20054;-80
2021/10/07 01:56:42;;;;;;;1.77;0.98;;;21.60;60.70;;;;;;5186355;28;20542;-81
2021/10/07 01:59:16;;;;;;;3.50;1.13;;;21.60;60.70;;;;;;5204136;28;20049;-81
2021/10/07 02:01:48;;;;;;;2.70;0.80;;;21.70;61.50;;;;;;5186105;28;20057;-81
2021/10/07 02:04:21;;;;;;;1.17;0.80;;;21.70;60.90;;;;;;5197800;28;20048;-81
2021/10/07 02:06:53;;;;;;;3.38;0.88;;;21.60;60.80;;;;;;5187776;28;20042;-81
2021/10/07 02:09:26;;;;;;;1.27;0.90;;;21.60;60.70;;;;;;5187834;28;20037;-81
2021/10/07 02:11:58;;;;;;;1.85;1.20;;;21.60;60.70;;;;;;5184448;28;20056;-81
2021/10/07 02:14:31;;;;;;;2.25;1.17;;;21.60;60.70;;;;;;5188047;28;20045;-81
2021/10/07 02:17:03;;;;;;;2.70;1.08;;;21.60;60.70;;;;;;5185723;28;20048;-81
2021/10/07 02:19:36;;;;;;;2.87;1.17;;;21.60;60.80;;;;;;5184337;28;20045;-81
2021/10/07 02:22:08;;;;;;;1.75;1.00;;;21.60;60.70;;;;;;5186347;28;20297;-80
2021/10/07 02:24:41;;;;;;;1.55;1.00;;;21.60;60.70;;;;;;5183674;28;20052;-82
2021/10/07 02:27:13;;;;;;;2.08;1.00;;;21.60;60.70;;;;;;5184570;28;20077;-83
2021/10/07 02:29:46;;;;;;;3.47;1.40;;;21.60;60.80;;;;;;5171358;28;20259;-83
2021/10/07 02:32:19;;;;;;;2.65;1.00;;;21.60;60.80;;;;;;5183953;28;20310;-83
2021/10/07 02:34:52;;;;;;;1.63;1.00;;;21.60;60.80;;;;;;5182913;28;20037;-82
2021/10/07 02:37:24;;;;;;;1.63;0.90;;;21.60;60.80;;;;;;5184914;28;20049;-83
2021/10/07 02:39:57;;;;;;;1.75;0.80;;;21.60;60.80;;;;;;5198174;28;21129;-83
2021/10/07 02:42:30;;;;;;;0.95;0.70;;;21.60;60.80;;;;;;5185003;28;20558;-83
2021/10/07 02:45:06;;;;;;;1.70;0.85;;;21.60;60.80;;;;;;5181521;28;20041;-80
2021/10/07 02:47:41;;;;;;;1.70;1.20;;;21.60;60.80;;;;;;5193457;28;20403;-81
2021/10/07 02:50:15;;;;;;;3.92;1.08;;;21.60;60.80;;;;;;5174920;28;20045;-81
2021/10/07 02:52:48;;;;;;;1.67;0.82;;;21.60;60.80;;;;;;5181202;28;20488;-81
2021/10/07 02:55:21;;;;;;;2.60;1.27;;;21.60;60.80;;;;;;5181237;28;20049;-81
2021/10/07 02:57:53;;;;;;;2.95;1.33;;;21.60;60.80;;;;;;5181793;28;20493;-81
2021/10/07 03:00:26;;;;;;;4.00;1.00;;;21.60;60.80;;;;;;5179690;28;20045;-81
2021/10/07 03:02:58;;;;;;;2.45;1.08;;;21.60;60.80;;;;;;5181349;28;20056;-81
2021/10/07 03:05:34;;;;;;;2.28;1.33;;;21.60;60.80;;;;;;5179178;28;20054;-81
2021/10/07 03:08:07;;;;;;;2.13;1.10;;;21.60;60.80;;;;;;5191313;28;20053;-83
2021/10/07 03:10:39;;;;;;;2.90;0.98;;;21.60;60.80;;;;;;5183847;28;20104;-81
2021/10/07 03:13:11;;;;;;;4.50;1.40;;;21.60;60.80;;;;;;5183923;28;20192;-81
2021/10/07 03:15:44;;;;;;;5.10;1.02;;;21.60;60.80;;;;;;5184664;28;21439;-81
2021/10/07 03:18:17;;;;;;;2.70;1.00;;;21.60;60.80;;;;;;5186191;28;20372;-81
2021/10/07 03:20:49;;;;;;;6.33;1.20;;;21.60;60.80;;;;;;5185653;28;20052;-81
2021/10/07 03:23:22;;;;;;;9.35;1.10;;;21.60;60.90;;;;;;5181837;28;20064;-81
2021/10/07 03:25:54;;;;;;;6.60;1.33;;;21.60;60.90;;;;;;5165073;28;20045;-81
2021/10/07 03:28:26;;;;;;;8.93;1.27;;;21.60;60.90;;;;;;5169848;28;20037;-80
2021/10/07 03:30:59;;;;;;;4.85;1.10;;;21.60;60.90;;;;;;5173900;28;20424;-81
2021/10/07 03:33:31;;;;;;;1.70;0.90;;;21.60;60.90;;;;;;5197224;28;20511;-86
2021/10/07 03:36:04;;;;;;;2.95;1.20;;;21.60;60.90;;;;;;5165435;28;20045;-87
2021/10/07 03:38:36;;;;;;;6.43;1.20;;;21.60;60.90;;;;;;5182742;28;20065;-85
2021/10/07 03:41:09;;;;;;;2.72;1.00;;;21.60;61.00;;;;;;5177229;28;20068;-85
2021/10/07 03:43:41;;;;;;;5.15;1.42;;;21.60;61.00;;;;;;5182034;28;20061;-86
2021/10/07 03:46:15;;;;;;;5.65;1.48;;;21.60;61.00;;;;;;5184521;28;20092;-86
2021/10/07 03:48:48;;;;;;;;;;;21.60;60.90;;;;;;5176890;28;20056;-87
2021/10/07 03:51:20;;;;;;;8.23;1.92;;;21.50;60.90;;;;;;5183251;28;19929;-88
2021/10/07 03:53:52;;;;;;;3.53;1.00;;;21.60;61.00;;;;;;5182079;28;20399;-87
2021/10/07 03:56:25;;;;;;;4.47;1.00;;;21.60;61.00;;;;;;5185151;28;20151;-87
2021/10/07 03:58:58;;;;;;;5.30;1.55;;;21.60;60.90;;;;;;5184359;28;20049;-86
2021/10/07 04:01:30;;;;;;;2.10;1.00;;;21.60;61.00;;;;;;5199228;28;20046;-86
2021/10/07 04:04:03;;;;;;;3.00;1.03;;;21.60;60.90;;;;;;5167416;28;20056;-87
2021/10/07 04:06:36;;;;;;;2.42;1.25;;;21.60;60.90;;;;;;5173009;28;20650;-88
2021/10/07 04:09:08;;;;;;;2.65;1.23;;;21.60;60.90;;;;;;5190690;28;20396;-85
2021/10/07 04:11:41;;;;;;;2.07;0.80;;;21.60;60.90;;;;;;5189262;28;20429;-86
2021/10/07 04:14:13;;;;;;;3.90;1.13;;;21.60;60.90;;;;;;5186361;28;20450;-87
2021/10/07 04:16:46;;;;;;;3.15;1.38;;;21.60;60.90;;;;;;5188467;28;20046;-87
2021/10/07 04:19:19;;;;;;;1.98;1.05;;;21.60;60.90;;;;;;5190943;28;20403;-86
2021/10/07 04:21:52;;;;;;;1.83;1.05;;;21.60;60.90;;;;;;5206271;28;20499;-86
2021/10/07 04:24:24;;;;;;;2.88;0.95;;;21.60;60.80;;;;;;5194510;28;20479;-86
2021/10/07 04:26:57;;;;;;;3.42;1.17;;;21.60;60.90;;;;;;5195539;28;20052;-84
2021/10/07 04:29:29;;;;;;;3.70;1.02;;;21.60;60.90;;;;;;5198896;28;20049;-87
2021/10/07 04:32:02;;;;;;;5.50;1.27;;;21.60;60.90;;;;;;5187553;28;20056;-86
2021/10/07 04:34:35;;;;;;;5.95;1.40;;;21.60;60.90;;;;;;5202855;28;20046;-86
2021/10/07 04:37:07;;;;;;;6.10;1.10;;;21.60;61.00;;;;;;5198687;28;20045;-88
2021/10/07 04:39:40;;;;;;;5.83;1.20;;;21.60;60.90;;;;;;5189377;28;20121;-86
2021/10/07 04:42:12;;;;;;;6.72;1.50;;;21.70;61.60;;;;;;5201361;28;20041;-87
2021/10/07 04:44:45;;;;;;;5.57;1.10;;;21.70;60.90;;;;;;5186019;28;20061;-88
2021/10/07 04:47:17;;;;;;;5.60;1.58;;;21.70;60.90;;;;;;5166676;28;20054;-87
2021/10/07 04:49:50;;;;;;;12.88;1.60;;;21.70;60.80;;;;;;5203431;28;20132;-86
2021/10/07 04:52:23;;;;;;;8.60;1.40;;;21.70;60.80;;;;;;5184188;28;20049;-86
2021/10/07 04:54:59;;;;;;;8.32;1.33;;;21.70;60.70;;;;;;5197508;28;20052;-85
2021/10/07 04:57:31;;;;;;;7.70;1.33;;;21.80;60.70;;;;;;5192779;28;20415;-87
2021/10/07 05:00:08;;;;;;;8.00;1.55;;;21.80;60.80;;;;;;5181048;28;20045;-85
2021/10/07 05:02:41;;;;;;;8.07;1.48;;;21.80;60.30;;;;;;5187198;28;20691;-85
2021/10/07 05:05:14;;;;;;;8.77;1.50;;;21.80;60.50;;;;;;5191298;28;20037;-84
2021/10/07 05:07:46;;;;;;;21.67;1.88;;;21.80;60.80;;;;;;5179757;28;20056;-84
2021/10/07 05:10:18;;;;;;;10.30;1.73;;;21.80;61.00;;;;;;5186877;28;20045;-84
2021/10/07 05:12:51;;;;;;;10.57;1.77;;;21.80;61.30;;;;;;5184588;28;20483;-87
2021/10/07 05:15:25;;;;;;;10.38;2.00;;;21.80;61.30;;;;;;5167934;28;20053;-86
2021/10/07 05:17:57;;;;;;;7.35;2.03;;;21.90;61.10;;;;;;5190659;28;20037;-85
2021/10/07 05:20:30;;;;;;;7.47;1.30;;;21.90;60.80;;;;;;5190520;28;20093;-86
2021/10/07 05:23:04;;;;;;;6.05;1.17;;;21.90;60.50;;;;;;5183411;28;20320;-86
2021/10/07 05:25:37;;;;;;;6.32;1.38;;;21.80;60.30;;;;;;5179019;28;20058;-84
2021/10/07 05:28:10;;;;;;;4.20;1.60;;;21.80;60.00;;;;;;5177016;28;20045;-86
2021/10/07 05:30:42;;;;;;;4.22;1.20;;;21.80;60.00;;;;;;5178465;28;20045;-87
2021/10/07 05:33:15;;;;;;;2.97;1.30;;;21.80;59.70;;;;;;5180202;28;20487;-86
2021/10/07 05:35:49;;;;;;;5.57;1.40;;;21.80;59.50;;;;;;5192860;28;20053;-83
2021/10/07 05:38:25;;;;;;;6.43;1.27;;;21.70;59.50;;;;;;5183972;28;20049;-83
2021/10/07 05:41:00;;;;;;;2.80;1.25;;;21.80;59.40;;;;;;5190039;28;20053;-84
2021/10/07 05:43:33;;;;;;;2.73;1.20;;;21.70;59.50;;;;;;5183753;28;20060;-85
2021/10/07 05:46:05;;;;;;;3.90;1.50;;;21.70;59.30;;;;;;5188535;28;20657;-86
2021/10/07 05:48:38;;;;;;;1.63;0.87;;;21.70;59.20;;;;;;5190216;28;20072;-85
2021/10/07 05:51:11;;;;;;;2.33;1.08;;;21.70;59.10;;;;;;5188047;28;20038;-84
2021/10/07 05:53:43;;;;;;;1.92;1.00;;;21.70;59.10;;;;;;5189906;28;20722;-84
2021/10/07 05:56:15;;;;;;;1.67;1.10;;;21.70;59.00;;;;;;5188447;28;20045;-85
2021/10/07 05:58:48;;;;;;;4.47;1.15;;;21.70;58.80;;;;;;5206329;28;20647;-84
2021/10/07 06:01:23;;;;;;;2.58;1.00;;;21.70;58.90;;;;;;5186453;28;20384;-84
2021/10/07 06:03:56;;;;;;;3.03;1.30;;;21.70;58.80;;;;;;5199529;28;20092;-83
2021/10/07 06:06:29;;;;;;;3.70;1.33;;;21.70;58.70;;;;;;5185751;28;20052;-85
2021/10/07 06:09:02;;;;;;;3.40;1.40;;;21.70;59.30;;;;;;5185425;28;20056;-83
2021/10/07 06:11:35;;;;;;;2.42;1.10;;;21.70;58.70;;;;;;5179594;28;20080;-83
2021/10/07 06:14:08;;;;;;;;;;;21.60;58.60;;;;;;5186733;28;21025;-86
2021/10/07 06:16:40;;;;;;;4.13;1.25;;;21.60;58.50;;;;;;5184991;28;20375;-84
2021/10/07 06:19:16;;;;;;;2.38;1.38;;;21.60;58.70;;;;;;5181601;28;20712;-84
2021/10/07 06:21:50;;;;;;;1.55;1.10;;;21.60;58.70;;;;;;5183020;28;20080;-83
2021/10/07 06:24:23;;;;;;;1.38;1.00;;;21.60;58.50;;;;;;5184991;28;20072;-86
2021/10/07 06:26:55;;;;;;;2.40;1.30;;;21.60;58.50;;;;;;5182595;28;20049;-85
2021/10/07 06:29:28;;;;;;;3.00;1.35;;;21.60;58.50;;;;;;5195583;28;20041;-83
2021/10/07 06:32:00;;;;;;;4.47;1.48;;;21.60;58.40;;;;;;5183963;28;20053;-83
2021/10/07 06:34:33;;;;;;;2.28;1.40;;;21.60;58.40;;;;;;5182706;28;20593;-86
2021/10/07 06:37:05;;;;;;;3.00;1.10;;;21.60;58.30;;;;;;5187382;28;20052;-83
2021/10/07 06:39:37;;;;;;;2.13;1.23;;;21.60;58.30;;;;;;5180508;28;20076;-84
2021/10/07 06:42:10;;;;;;;4.53;1.20;;;21.60;58.30;;;;;;5185072;28;20526;-84
2021/10/07 06:44:42;;;;;;;3.27;1.40;;;21.60;58.30;;;;;;5186447;28;20053;-85
2021/10/07 06:47:16;;;;;;;2.45;1.20;;;21.70;58.40;;;;;;5188187;28;20056;-84
2021/10/07 06:49:49;;;;;;;2.00;1.13;;;21.70;58.40;;;;;;5180263;28;21130;-83
2021/10/07 06:52:21;;;;;;;1.55;1.25;;;21.70;58.30;;;;;;5165876;28;20358;-83
2021/10/07 06:54:53;;;;;;;1.92;1.30;;;21.70;58.20;;;;;;5180563;28;20942;-84
2021/10/07 06:57:26;;;;;;;1.65;1.15;;;21.70;58.30;;;;;;5201966;28;20054;-84
2021/10/07 06:59:58;;;;;;;2.10;1.40;;;21.70;58.20;;;;;;5185080;28;20045;-84
2021/10/07 07:02:31;;;;;;;3.05;1.48;;;21.70;58.20;;;;;;5201064;28;20050;-84
2021/10/07 07:05:05;;;;;;;3.60;1.35;;;21.60;58.10;;;;;;5184495;28;20501;-85
2021/10/07 07:07:38;;;;;;;3.78;1.10;;;21.70;58.20;;;;;;5186733;28;20049;-84
2021/10/07 07:10:17;;;;;;;3.63;1.80;;;21.70;58.10;;;;;;5189760;28;20053;-83
2021/10/07 07:12:53;;;;;;;1.77;1.08;;;21.60;58.10;;;;;;5184261;28;20445;-82
2021/10/07 07:15:25;;;;;;;1.88;1.20;;;21.70;58.20;;;;;;5176781;28;20693;-84
2021/10/07 07:17:58;;;;;;;4.10;1.30;;;21.70;58.10;;;;;;5180639;28;20046;-83
2021/10/07 07:20:31;;;;;;;2.55;1.15;;;21.70;58.10;;;;;;5173730;28;20399;-84
2021/10/07 07:23:10;;;;;;;5.43;1.23;;;21.70;58.10;;;;;;5180732;28;20538;-83
2021/10/07 07:25:43;;;;;;;2.60;1.40;;;21.60;58.00;;;;;;5181244;28;20640;-84
2021/10/07 07:28:16;;;;;;;3.13;1.30;;;21.70;57.90;;;;;;5183955;28;20503;-85
2021/10/07 07:30:51;;;;;;;1.85;1.38;;;21.60;57.90;;;;;;5176575;28;20307;-84
2021/10/07 07:33:27;;;;;;;4.53;1.35;;;21.60;58.00;;;;;;5186359;28;20423;-86
2021/10/07 07:35:59;;;;;;;3.42;1.33;;;21.60;57.90;;;;;;5189418;28;20423;-84
2021/10/07 07:38:31;;;;;;;4.38;1.58;;;21.60;57.90;;;;;;5157570;28;20057;-83
2021/10/07 07:41:04;;;;;;;1.73;1.02;;;21.60;57.90;;;;;;5185747;28;20052;-84
2021/10/07 07:43:41;;;;;;;2.78;1.17;;;21.60;57.90;;;;;;5183034;28;20049;-83
2021/10/07 07:46:17;;;;;;;4.13;1.20;;;21.60;58.00;;;;;;5181526;28;20327;-86
2021/10/07 07:48:50;;;;;;;4.13;1.25;;;21.60;57.90;;;;;;5185273;28;20662;-84
2021/10/07 07:51:23;;;;;;;3.40;1.42;;;21.60;58.00;;;;;;5199746;28;20045;-85
2021/10/07 07:53:55;;;;;;;4.43;1.25;;;21.60;58.00;;;;;;5186172;28;20052;-84
2021/10/07 07:56:28;;;;;;;1.43;1.30;;;21.60;57.90;;;;;;5177701;28;20411;-83
2021/10/07 07:59:01;;;;;;;3.00;1.60;;;21.60;57.90;;;;;;5187463;28;20049;-83
2021/10/07 08:01:34;;;;;;;2.58;1.30;;;21.60;57.90;;;;;;5196497;28;20049;-84
2021/10/07 08:04:07;;;;;;;2.05;1.33;;;21.60;57.90;;;;;;5178271;28;20061;-83
2021/10/07 08:06:40;;;;;;;2.85;1.50;;;21.60;57.80;;;;;;5184868;28;20054;-86
2021/10/07 08:09:12;;;;;;;3.78;1.30;;;21.60;57.80;;;;;;5186814;28;20425;-84
2021/10/07 08:11:45;;;;;;;2.67;1.30;;;21.60;57.90;;;;;;5186165;28;20610;-86
2021/10/07 08:14:17;;;;;;;5.07;1.23;;;21.60;57.90;;;;;;5184133;28;20060;-83
2021/10/07 08:16:50;;;;;;;4.45;1.20;;;21.60;57.90;;;;;;5184558;28;20034;-85
2021/10/07 08:19:22;;;;;;;4.97;1.40;;;21.60;57.90;;;;;;5185177;28;20108;-84
2021/10/07 08:21:54;;;;;;;3.13;1.30;;;21.60;57.80;;;;;;4487078;28;9999940;-85
2021/10/07 08:24:27;;;;;;;2.88;1.30;;;21.60;57.80;;;;;;5185285;28;20053;-83
2021/10/07 08:27:02;;;;;;;2.92;1.27;;;21.60;57.80;;;;;;5169328;28;20057;-84
2021/10/07 08:29:34;;;;;;;2.13;1.10;;;21.60;57.80;;;;;;5192031;28;20053;-84
2021/10/07 08:32:07;;;;;;;2.53;1.00;;;21.70;57.80;;;;;;5189014;28;20052;-85
2021/10/07 08:34:39;;;;;;;3.63;1.40;;;21.60;57.80;;;;;;5180436;28;20052;-84
2021/10/07 08:37:14;;;;;;;2.97;1.10;;;21.60;57.80;;;;;;5188866;28;20045;-84
2021/10/07 08:39:46;;;;;;;3.33;1.40;;;21.70;57.90;;;;;;5181960;28;20818;-84
2021/10/07 08:42:20;;;;;;;2.13;1.27;;;21.70;57.90;;;;;;5190991;28;20064;-83
2021/10/07 08:44:53;;;;;;;5.60;1.73;;;21.80;58.00;;;;;;5189717;28;20872;-85
2021/10/07 08:47:25;;;;;;;2.50;1.02;;;21.80;58.20;;;;;;5192804;28;20076;-84
2021/10/07 08:49:58;;;;;;;2.08;1.05;;;21.80;58.30;;;;;;5191310;28;20420;-83
2021/10/07 08:52:31;;;;;;;2.58;1.10;;;21.80;58.40;;;;;;5199619;28;20053;-83
2021/10/07 08:55:04;;;;;;;1.38;0.85;;;21.90;58.50;;;;;;5189488;28;20061;-84
2021/10/07 08:57:38;;;;;;;;;;;21.90;58.60;;;;;;5169465;28;20052;-84
2021/10/07 09:00:12;;;;;;;1.30;0.90;;;21.90;58.70;;;;;;5146112;28;20295;-86
2021/10/07 09:02:45;;;;;;;2.15;0.90;;;21.90;58.80;;;;;;5163766;28;20058;-85
2021/10/07 09:05:22;;;;;;;1.77;1.00;;;21.90;58.90;;;;;;5167864;28;20053;-87
2021/10/07 09:07:57;;;;;;;1.13;0.80;;;21.90;59.00;;;;;;5183630;28;20064;-88
2021/10/07 09:10:45;;;;;;;3.78;1.10;;;21.90;59.00;;;;;;5181195;28;21407;-85
2021/10/07 09:13:21;;;;;;;1.95;1.10;;;22.00;59.20;;;;;;5189213;28;20068;-86
2021/10/07 09:15:57;;;;;;;1.50;0.90;;;22.00;59.30;;;;;;5193060;28;20052;-85
2021/10/07 09:18:31;;;;;;;2.60;1.00;;;22.00;59.40;;;;;;5189961;28;20415;-82
2021/10/07 09:21:03;;;;;;;2.35;0.93;;;22.00;59.40;;;;;;5204817;28;20045;-83
2021/10/07 09:23:35;;;;;;;4.55;1.00;;;22.00;59.50;;;;;;5181329;28;20092;-84
2021/10/07 09:26:12;;;;;;;3.10;1.20;;;22.00;59.50;;;;;;5179959;28;20041;-84
2021/10/07 09:28:56;;;;;;;1.48;1.00;;;22.00;59.60;;;;;;5177981;28;20057;-87
2021/10/07 09:31:30;;;;;;;;;;;22.00;59.60;;;;;;5178030;28;20644;-85
2021/10/07 09:34:05;;;;;;;2.60;1.08;;;22.00;59.80;;;;;;5181511;28;20322;-88
2021/10/07 09:36:37;;;;;;;2.00;0.95;;;22.00;59.80;;;;;;5178355;28;20049;-86
2021/10/07 09:39:10;;;;;;;4.28;0.85;;;22.00;59.90;;;;;;5185131;28;20045;-82
2021/10/07 09:41:43;;;;;;;1.30;0.90;;;22.00;59.90;;;;;;5179274;28;20053;-85
2021/10/07 09:44:16;;;;;;;1.33;1.02;;;22.00;59.90;;;;;;5176334;28;20122;-85
2021/10/07 09:46:51;;;;;;;1.83;0.90;;;22.00;59.90;;;;;;5181473;28;20037;-85
2021/10/07 09:49:42;;;;;;;4.75;1.00;;;22.10;60.00;;;;;;5181535;28;20037;-87
2021/10/07 09:52:15;;;;;;;1.60;0.88;;;22.10;60.00;;;;;;5177846;28;21166;-86
2021/10/07 09:54:47;;;;;;;1.85;0.95;;;22.10;60.00;;;;;;5192718;28;20612;-82
2021/10/07 09:57:21;;;;;;;4.55;1.05;;;22.10;60.10;;;;;;5182993;28;20057;-84
2021/10/07 09:59:57;;;;;;;2.60;1.00;;;22.20;60.00;;;;;;5178426;28;20060;-86
2021/10/07 10:02:30;;;;;;;1.58;0.80;;;22.20;60.10;;;;;;5176880;28;20537;-83
2021/10/07 10:05:04;;;;;;;2.15;1.00;;;22.20;60.10;;;;;;5177909;28;20045;-83
2021/10/07 10:07:36;;;;;;;1.55;0.80;;;22.20;60.10;;;;;;5183308;28;20491;-88
2021/10/07 10:10:11;;;;;;;2.47;1.17;;;22.20;60.20;;;;;;5179954;28;20048;-86
2021/10/07 10:12:44;;;;;;;2.25;0.95;;;22.20;60.20;;;;;;5177109;28;20296;-87
2021/10/07 10:15:18;;;;;;;1.23;0.80;;;22.20;60.20;;;;;;5175879;28;20050;-85
2021/10/07 10:17:51;;;;;;;2.00;0.70;;;22.20;60.20;;;;;;5171397;28;20057;-85
2021/10/07 10:20:30;;;;;;;1.38;0.95;;;22.20;60.20;;;;;;5181772;28;20056;-86
2021/10/07 10:23:07;;;;;;;0.90;0.80;;;22.20;60.30;;;;;;4499147;28;10001002;-87
2021/10/07 10:25:55;;;;;;;2.08;1.20;;;22.20;60.30;;;;;;5176847;28;20060;-84
2021/10/07 10:28:51;;;;;;;2.78;1.00;;;22.20;60.30;;;;;;5166976;28;20049;-87
2021/10/07 10:31:34;;;;;;;2.28;0.88;;;22.20;60.40;;;;;;5195822;28;20056;-84
2021/10/07 10:34:13;;;;;;;5.07;0.90;;;22.20;60.40;;;;;;5169230;28;20046;-85
2021/10/07 10:36:57;;;;;;;2.20;0.70;;;22.20;60.50;;;;;;5163232;28;20312;-87
2021/10/07 10:39:38;;;;;;;2.13;0.98;;;22.20;60.60;;;;;;5188703;28;20502;-86
2021/10/07 10:42:16;;;;;;;1.67;1.10;;;22.20;60.60;;;;;;5174751;28;20050;-85
2021/10/07 10:44:56;;;;;;;2.83;1.10;;;22.20;60.60;;;;;;5177626;28;20049;-85
2021/10/07 10:47:44;;;;;;;1.50;0.80;;;22.20;60.70;;;;;;5193710;28;20064;-88
2021/10/07 10:50:24;;;;;;;2.70;0.77;;;22.20;61.40;;;;;;5191961;28;20049;-86
2021/10/07 10:52:58;;;;;;;1.95;0.85;;;22.20;60.70;;;;;;5175675;28;20045;-86
2021/10/07 10:55:33;;;;;;;1.25;0.75;;;22.20;60.80;;;;;;5177730;28;20053;-84
2021/10/07 10:58:07;;;;;;;0.88;0.80;;;22.20;60.80;;;;;;5180057;28;20427;-85
2021/10/07 11:00:44;;;;;;;1.00;0.73;;;22.20;60.80;;;;;;5190470;28;20060;-87
2021/10/07 11:03:19;;;;;;;1.38;0.70;;;22.20;60.90;;;;;;5177192;28;20049;-87
2021/10/07 11:06:01;;;;;;;1.55;0.68;;;22.20;60.90;;;;;;5159982;28;20057;-86
2021/10/07 11:08:56;;;;;;;1.42;1.10;;;22.30;61.00;;;;;;5182103;28;21318;-85
2021/10/07 11:11:30;;;;;;;1.60;0.65;;;22.20;60.90;;;;;;5179777;28;20052;-86
2021/10/07 11:14:03;;;;;;;1.10;0.75;;;22.30;61.00;;;;;;5179599;28;20050;-86
2021/10/07 11:16:35;;;;;;;2.47;0.80;;;22.30;61.10;;;;;;5198710;28;20499;-87
2021/10/07 11:19:08;;;;;;;2.50;0.95;;;22.30;61.00;;;;;;5175784;28;20049;-85
2021/10/07 11:21:41;;;;;;;1.77;0.70;;;22.30;61.00;;;;;;5183855;28;20492;-88
2021/10/07 11:24:15;;;;;;;2.13;0.93;;;22.30;61.00;;;;;;5177056;28;20506;-85
2021/10/07 11:26:48;;;;;;;0.75;0.60;;;22.30;61.10;;;;;;5195368;28;20050;-86
2021/10/07 11:29:20;;;;;;;2.13;1.00;;;22.30;61.10;;;;;;5183212;28;20060;-86
2021/10/07 11:31:53;;;;;;;0.90;0.70;;;22.30;61.10;;;;;;5182151;28;20037;-87
2021/10/07 11:34:26;;;;;;;1.20;0.80;;;22.30;61.20;;;;;;5180748;28;20059;-84
2021/10/07 11:36:58;;;;;;;1.48;0.70;;;22.30;61.20;;;;;;5184067;28;20053;-85
2021/10/07 11:39:30;;;;;;;1.00;0.65;;;22.30;61.30;;;;;;5184202;28;20315;-87
2021/10/07 11:42:03;;;;;;;1.55;0.90;;;22.30;61.40;;;;;;5204658;28;20061;-85
2021/10/07 11:44:44;;;;;;;4.05;1.20;;;22.30;61.50;;;;;;5190055;28;20491;-84
2021/10/07 11:47:27;;;;;;;1.05;0.70;;;22.30;61.50;;;;;;5187258;28;20137;-86
2021/10/07 11:50:12;;;;;;;1.48;0.57;;;22.30;61.50;;;;;;5170111;28;20041;-86
2021/10/07 11:52:45;;;;;;;1.45;0.60;;;22.30;61.60;;;;;;5181409;28;20045;-87
2021/10/07 11:55:19;;;;;;;0.97;0.70;;;22.30;61.70;;;;;;5160596;28;20053;-84
2021/10/07 11:57:54;;;;;;;0.90;0.70;;;22.30;61.70;;;;;;5179290;28;20339;-85
2021/10/07 12:00:45;;;;;;;2.17;1.13;;;22.30;61.70;;;;;;5179133;28;20053;-85
2021/10/07 12:03:32;;;;;;;0.88;0.77;;;22.30;61.70;;;;;;5170354;28;20103;-84
2021/10/07 12:06:08;;;;;;;1.25;0.68;;;22.30;61.70;;;;;;5177754;28;20061;-86
2021/10/07 12:08:43;;;;;;;2.08;0.75;;;22.30;61.70;;;;;;5181044;28;20076;-85
2021/10/07 12:11:21;;;;;;;1.27;0.80;;;22.30;61.90;;;;;;5177513;28;20549;-84
2021/10/07 12:13:58;;;;;;;1.92;0.82;;;22.30;61.80;;;;;;5190845;28;20049;-85
2021/10/07 12:16:34;;;;;;;1.00;0.73;;;22.30;61.80;;;;;;5180170;28;20046;-86
2021/10/07 12:19:13;;;;;;;0.90;0.75;;;22.30;61.90;;;;;;5169588;28;20045;-84
2021/10/07 12:21:56;;;;;;;1.48;0.82;;;22.30;61.90;;;;;;5180922;28;20414;-87
2021/10/07 12:24:30;;;;;;;1.40;0.90;;;22.30;61.90;;;;;;5184286;28;20065;-83
2021/10/07 12:27:02;;;;;;;1.23;0.70;;;22.30;61.90;;;;;;5171007;28;20064;-84
2021/10/07 12:29:35;;;;;;;0.75;0.60;;;22.30;61.90;;;;;;5176489;28;20049;-87
2021/10/07 12:32:14;;;;;;;3.35;0.70;;;22.30;61.90;;;;;;5179840;28;20050;-85
2021/10/07 12:34:50;;;;;;;1.05;0.73;;;22.30;61.90;;;;;;5180565;28;20498;-84
2021/10/07 12:37:28;;;;;;;0.93;0.70;;;22.30;62.00;;;;;;5178823;28;20045;-87
2021/10/07 12:40:00;;;;;;;1.45;1.02;;;22.30;62.00;;;;;;5178077;28;20048;-85
2021/10/07 12:42:33;;;;;;;4.15;1.00;;;22.30;62.00;;;;;;5175393;28;20495;-84
2021/10/07 12:45:06;;;;;;;1.47;0.60;;;22.30;62.00;;;;;;5175469;28;20060;-85
2021/10/07 12:47:39;;;;;;;1.30;0.70;;;22.30;62.10;;;;;;5158516;28;20065;-87
2021/10/07 12:50:14;;;;;;;2.00;0.77;;;22.30;62.20;;;;;;5188944;28;20053;-84
2021/10/07 12:52:58;;;;;;;2.20;0.80;;;22.30;62.20;;;;;;5171615;28;20049;-84
2021/10/07 12:55:31;;;;;;;1.25;0.80;;;22.40;62.20;;;;;;5193246;28;20483;-85
2021/10/07 12:58:04;;;;;;;1.93;0.80;;;22.40;62.20;;;;;;5173135;28;20128;-85
2021/10/07 13:00:37;;;;;;;0.75;0.45;;;22.40;62.20;;;;;;5168338;28;20377;-84
2021/10/07 13:03:22;;;;;;;1.40;0.80;;;22.40;62.20;;;;;;5193003;28;22297;-85
2021/10/07 13:05:55;;;;;;;1.80;0.88;;;22.40;62.10;;;;;;5178420;28;20041;-87
2021/10/07 13:08:27;;;;;;;1.20;1.00;;;22.40;62.10;;;;;;5176389;28;20445;-85
2021/10/07 13:11:01;;;;;;;5.32;0.80;;;22.40;62.10;;;;;;5180889;28;20052;-85
2021/10/07 13:13:34;;;;;;;;;;;22.40;62.20;;;;;;5171269;28;20045;-85
2021/10/07 13:16:07;;;;;;;1.03;0.73;;;22.40;62.30;;;;;;5159095;28;19921;-84
2021/10/07 13:18:39;;;;;;;2.25;0.75;;;22.40;62.30;;;;;;5173321;28;21196;-82
2021/10/07 13:21:12;;;;;;;2.13;0.80;;;22.40;62.30;;;;;;5168769;28;20056;-85
2021/10/07 13:23:45;;;;;;;2.30;1.35;;;22.40;62.40;;;;;;5186567;28;20116;-85
2021/10/07 13:26:18;;;;;;;1.33;0.95;;;22.40;62.40;;;;;;5164845;28;20580;-87
2021/10/07 13:28:50;;;;;;;1.23;0.88;;;22.40;62.50;;;;;;5156827;28;20327;-84
2021/10/07 13:31:23;;;;;;;3.93;0.87;;;22.40;62.50;;;;;;5163940;28;20566;-84